createdAt,value
2019-03-06T00:00:53.015Z,4.30
2019-03-06T00:03:26.676Z,4.40
2019-03-06T00:06:00.084Z,4.40
2019-03-06T00:08:33.729Z,4.03
2019-03-06T00:11:07.145Z,5.10
2019-03-06T00:13:40.547Z,4.40
2019-03-06T00:16:13.946Z,4.43
2019-03-06T00:18:47.352Z,4.13
2019-03-06T00:21:20.714Z,4.30
2019-03-06T00:23:54.047Z,3.90
2019-03-06T00:26:27.389Z,3.77
2019-03-06T00:29:00.790Z,4.07
2019-03-06T00:31:34.171Z,4.50
2019-03-06T00:34:07.568Z,4.70
2019-03-06T00:36:41.052Z,4.33
2019-03-06T00:39:14.367Z,4.20
2019-03-06T00:41:47.882Z,4.70
2019-03-06T00:44:21.332Z,5.07
2019-03-06T00:46:54.692Z,5.20
2019-03-06T00:49:28.091Z,4.60
2019-03-06T00:52:01.732Z,4.70
2019-03-06T00:54:35.133Z,4.87
2019-03-06T00:57:08.546Z,4.77
2019-03-06T00:59:41.863Z,5.20
2019-03-06T01:02:15.211Z,5.70
2019-03-06T01:04:48.521Z,4.50
2019-03-06T01:07:21.991Z,5.07
2019-03-06T01:09:55.319Z,4.83
2019-03-06T01:12:28.664Z,5.30
2019-03-06T01:15:02.051Z,5.30
2019-03-06T01:17:35.458Z,5.20
2019-03-06T01:20:11.471Z,5.20
2019-03-06T01:22:45.055Z,4.93
2019-03-06T01:25:20.471Z,5.53
2019-03-06T01:27:53.883Z,5.27
2019-03-06T01:30:27.980Z,5.53
2019-03-06T01:33:08.595Z,4.97
2019-03-06T01:35:43.560Z,5.30
2019-03-06T01:38:18.556Z,4.97
2019-03-06T01:40:53.534Z,5.20
2019-03-06T01:43:28.521Z,4.83
2019-03-06T01:46:02.217Z,4.97
2019-03-06T01:48:35.740Z,4.93
2019-03-06T01:51:09.172Z,4.37
2019-03-06T01:53:42.597Z,4.30
2019-03-06T01:56:16.059Z,4.93
2019-03-06T01:58:49.415Z,3.90
2019-03-06T02:01:22.848Z,4.70
2019-03-06T02:03:56.211Z,4.07
2019-03-06T02:06:29.540Z,4.77
2019-03-06T02:09:03.219Z,4.03
2019-03-06T02:11:36.611Z,4.53
2019-03-06T02:14:10.057Z,4.40
2019-03-06T02:16:43.393Z,4.20
2019-03-06T02:19:16.896Z,3.83
2019-03-06T02:21:50.307Z,3.40
2019-03-06T02:24:24.012Z,3.63
2019-03-06T02:26:57.330Z,3.30
2019-03-06T02:29:30.676Z,4.20
2019-03-06T02:32:04.142Z,3.83
2019-03-06T02:34:37.695Z,4.00
2019-03-06T02:37:11.111Z,3.50
2019-03-06T02:39:44.465Z,3.57
2019-03-06T02:42:17.874Z,3.80
2019-03-06T02:44:51.592Z,3.40
2019-03-06T02:47:24.967Z,3.83
2019-03-06T02:49:58.361Z,3.90
2019-03-06T02:52:31.692Z,3.33
2019-03-06T02:55:06.987Z,3.30
2019-03-06T02:57:42.001Z,2.87
2019-03-06T03:00:26.827Z,3.10
2019-03-06T03:03:13.832Z,3.53
2019-03-06T03:05:48.874Z,3.60
2019-03-06T03:08:22.197Z,3.23
2019-03-06T03:10:55.534Z,3.20
2019-03-06T03:13:28.865Z,3.20
2019-03-06T03:16:02.223Z,3.50
2019-03-06T03:18:35.532Z,3.30
2019-03-06T03:21:08.970Z,3.20
2019-03-06T03:23:42.306Z,3.17
2019-03-06T03:26:15.736Z,3.80
2019-03-06T03:28:49.069Z,3.80
2019-03-06T03:31:22.502Z,4.00
2019-03-06T03:33:55.896Z,3.03
2019-03-06T03:36:29.234Z,3.53
2019-03-06T03:39:02.552Z,3.73
2019-03-06T03:41:35.910Z,3.40
2019-03-06T03:44:09.297Z,3.77
2019-03-06T03:46:42.711Z,3.30
2019-03-06T03:49:16.071Z,4.37
2019-03-06T03:51:49.397Z,3.17
2019-03-06T03:54:22.769Z,3.70
2019-03-06T03:56:56.123Z,3.20
2019-03-06T03:59:29.619Z,3.10
2019-03-06T04:02:03.134Z,4.07
2019-03-06T04:04:36.453Z,4.20
2019-03-06T04:07:09.901Z,4.37
2019-03-06T04:09:43.263Z,4.07
2019-03-06T04:12:16.615Z,4.23
2019-03-06T04:14:49.960Z,4.43
2019-03-06T04:17:23.301Z,4.60
2019-03-06T04:19:56.990Z,4.00
2019-03-06T04:22:30.341Z,3.80
2019-03-06T04:25:04.833Z,4.03
2019-03-06T04:27:38.184Z,4.60
2019-03-06T04:30:19.281Z,4.10
2019-03-06T04:32:52.644Z,5.23
2019-03-06T04:35:26.154Z,4.93
2019-03-06T04:37:59.518Z,5.10
2019-03-06T04:40:32.922Z,4.87
2019-03-06T04:43:06.398Z,5.70
2019-03-06T04:45:39.839Z,3.97
2019-03-06T04:48:13.186Z,3.77
2019-03-06T04:50:46.532Z,4.40
2019-03-06T04:53:19.953Z,4.57
2019-03-06T04:55:53.329Z,4.77
2019-03-06T04:58:26.968Z,3.93
2019-03-06T05:01:00.332Z,4.30
2019-03-06T05:03:33.635Z,5.07
2019-03-06T05:06:06.963Z,5.07
2019-03-06T05:08:40.360Z,4.80
2019-03-06T05:11:13.726Z,4.77
2019-03-06T05:13:47.051Z,4.77
2019-03-06T05:16:22.079Z,4.33
2019-03-06T05:18:56.876Z,3.87
2019-03-06T05:21:30.199Z,4.40
2019-03-06T05:24:03.619Z,4.87
2019-03-06T05:26:37.003Z,5.13
2019-03-06T05:29:10.369Z,6.07
2019-03-06T05:32:03.231Z,5.37
2019-03-06T05:34:36.774Z,4.70
2019-03-06T05:37:19.305Z,5.07
2019-03-06T05:39:52.678Z,5.60
2019-03-06T05:42:26.091Z,5.47
2019-03-06T05:44:59.424Z,5.57
2019-03-06T05:47:32.752Z,5.57
2019-03-06T05:50:07.637Z,5.17
2019-03-06T05:52:40.991Z,5.40
2019-03-06T05:55:14.409Z,5.40
2019-03-06T05:57:47.736Z,6.30
2019-03-06T06:00:25.465Z,5.83
2019-03-06T06:02:58.789Z,6.23
2019-03-06T06:05:32.151Z,6.50
2019-03-06T06:08:05.547Z,7.07
2019-03-06T06:10:39.135Z,6.90
2019-03-06T06:13:12.474Z,7.47
2019-03-06T06:15:45.912Z,6.97
2019-03-06T06:18:19.225Z,9.07
2019-03-06T06:20:54.223Z,9.00
2019-03-06T06:23:38.424Z,7.93
2019-03-06T06:26:11.930Z,7.20
2019-03-06T06:28:45.333Z,6.97
2019-03-06T06:31:18.679Z,6.50
2019-03-06T06:33:52.083Z,5.90
2019-03-06T06:36:25.439Z,5.70
2019-03-06T06:38:58.771Z,5.33
2019-03-06T06:41:32.193Z,4.73
2019-03-06T06:44:05.644Z,4.70
2019-03-06T06:46:39.131Z,4.80
2019-03-06T06:49:12.476Z,4.23
2019-03-06T06:52:19.506Z,3.53
2019-03-06T06:55:05.072Z,3.83
2019-03-06T06:58:15.286Z,4.13
2019-03-06T07:00:59.085Z,3.40
2019-03-06T07:03:57.982Z,3.17
2019-03-06T07:06:33.024Z,3.60
2019-03-06T07:09:17.841Z,3.63
2019-03-06T07:11:52.786Z,3.03
2019-03-06T07:14:27.865Z,2.90
2019-03-06T07:17:02.814Z,2.83
2019-03-06T07:19:37.864Z,2.30
2019-03-06T07:22:12.808Z,2.60
2019-03-06T07:24:56.535Z,3.37
2019-03-06T07:27:31.587Z,2.50
2019-03-06T07:30:24.367Z,3.30
2019-03-06T07:33:08.631Z,2.60
2019-03-06T07:35:59.855Z,2.50
2019-03-06T07:38:33.626Z,2.13
2019-03-06T07:41:08.666Z,2.43
2019-03-06T07:43:43.602Z,2.33
2019-03-06T07:46:18.727Z,2.70
2019-03-06T07:48:53.785Z,2.50
2019-03-06T07:51:32.023Z,2.70
2019-03-06T07:54:10.390Z,2.50
2019-03-06T07:56:52.654Z,2.30
2019-03-06T07:59:25.987Z,2.30
2019-03-06T08:02:11.581Z,2.23
2019-03-06T08:04:52.753Z,2.10
2019-03-06T08:07:26.107Z,2.33
2019-03-06T08:09:59.453Z,7.77
2019-03-06T08:12:37.502Z,3.73
2019-03-06T08:15:12.908Z,2.27
2019-03-06T08:18:03.970Z,2.10
2019-03-06T08:20:47.777Z,1.97
2019-03-06T08:23:38.829Z,1.80
2019-03-06T08:26:12.422Z,1.37
2019-03-06T08:28:45.732Z,1.40
2019-03-06T08:31:29.538Z,1.37
2019-03-06T08:34:02.862Z,1.40
2019-03-06T08:36:36.242Z,1.43
2019-03-06T08:39:16.027Z,1.57
2019-03-06T08:41:49.456Z,1.40
2019-03-06T08:44:22.852Z,1.33
2019-03-06T08:46:57.897Z,1.60
2019-03-06T08:49:41.694Z,1.23
2019-03-06T08:52:16.759Z,1.03
2019-03-06T08:54:54.661Z,1.20
2019-03-06T08:57:29.784Z,1.13
2019-03-06T09:00:22.868Z,1.40
2019-03-06T09:03:18.430Z,1.43
2019-03-06T09:05:59.447Z,1.30
2019-03-06T09:08:36.971Z,1.40
2019-03-06T09:11:11.996Z,1.50
2019-03-06T09:13:49.783Z,1.67
2019-03-06T09:16:27.600Z,1.27
2019-03-06T09:19:17.719Z,1.10
2019-03-06T09:21:52.727Z,0.90
2019-03-06T09:24:27.784Z,1.17
2019-03-06T09:27:14.826Z,1.10
2019-03-06T09:29:53.061Z,1.47
2019-03-06T09:32:33.587Z,1.50
2019-03-06T09:35:21.876Z,1.20
2019-03-06T09:38:10.622Z,1.13
2019-03-06T09:40:55.515Z,1.27
2019-03-06T09:43:36.510Z,1.20
2019-03-06T09:46:11.552Z,1.20
2019-03-06T09:49:10.873Z,1.47
2019-03-06T09:51:53.011Z,1.27
2019-03-06T09:54:28.081Z,1.13
2019-03-06T09:57:18.315Z,1.10
2019-03-06T10:00:02.467Z,1.20
2019-03-06T10:02:40.185Z,1.00
2019-03-06T10:05:15.351Z,1.20
2019-03-06T10:07:50.309Z,1.20
2019-03-06T10:10:31.084Z,1.27
2019-03-06T10:13:21.898Z,1.30
2019-03-06T10:16:08.865Z,2.20
2019-03-06T10:18:46.648Z,2.20
2019-03-06T10:21:19.999Z,2.50
2019-03-06T10:23:53.434Z,2.50
2019-03-06T10:26:28.843Z,2.80
2019-03-06T10:29:02.074Z,1.93
2019-03-06T10:31:35.433Z,1.30
2019-03-06T10:34:08.847Z,1.70
2019-03-06T10:36:42.226Z,1.43
2019-03-06T10:39:16.296Z,1.50
2019-03-06T10:41:49.648Z,1.93
2019-03-06T10:44:29.593Z,1.80
2019-03-06T10:46:58.173Z,1.90
2019-03-06T10:49:31.777Z,1.40
2019-03-06T10:52:05.475Z,2.27
2019-03-06T10:54:44.682Z,1.10
2019-03-06T10:57:14.349Z,1.27
2019-03-06T10:59:48.028Z,1.33
2019-03-06T11:02:21.422Z,2.10
2019-03-06T11:04:56.400Z,1.90
2019-03-06T11:07:29.878Z,2.10
2019-03-06T11:10:04.119Z,2.13
2019-03-06T11:12:37.552Z,1.40
2019-03-06T11:15:18.733Z,1.43
2019-03-06T11:17:52.496Z,1.90
2019-03-06T11:20:31.803Z,2.13
2019-03-06T11:23:07.774Z,2.17
2019-03-06T11:25:41.483Z,1.93
2019-03-06T11:28:15.193Z,1.70
2019-03-06T11:30:56.660Z,1.63
2019-03-06T11:33:31.053Z,2.00
2019-03-06T11:36:04.715Z,1.30
2019-03-06T11:38:38.170Z,1.33
2019-03-06T11:41:11.876Z,1.27
2019-03-06T11:43:48.003Z,1.50
2019-03-06T11:46:21.414Z,1.50
2019-03-06T11:48:55.144Z,1.40
2019-03-06T11:51:28.527Z,1.40
2019-03-06T11:54:01.947Z,1.60
2019-03-06T11:56:35.573Z,1.40
2019-03-06T11:59:09.077Z,1.27
2019-03-06T12:01:47.960Z,1.27
2019-03-06T12:04:18.623Z,1.63
2019-03-06T12:06:52.018Z,1.50
2019-03-06T12:09:26.786Z,1.70
2019-03-06T12:12:00.503Z,1.40
2019-03-06T12:14:33.863Z,1.40
2019-03-06T12:17:07.328Z,1.20
2019-03-06T12:19:41.064Z,1.40
2019-03-06T12:22:14.472Z,1.60
2019-03-06T12:24:47.894Z,1.53
2019-03-06T12:27:21.306Z,1.83
2019-03-06T12:29:54.647Z,1.57
2019-03-06T12:32:28.102Z,1.30
2019-03-06T12:35:01.465Z,1.50
2019-03-06T12:37:34.854Z,1.30
2019-03-06T12:40:14.922Z,1.20
2019-03-06T12:42:48.547Z,1.60
2019-03-06T12:45:22.095Z,1.20
2019-03-06T12:48:01.325Z,1.33
2019-03-06T12:50:39.326Z,1.40
2019-03-06T12:53:13.007Z,1.57
2019-03-06T12:55:46.621Z,1.30
2019-03-06T12:58:19.957Z,1.37
2019-03-06T13:00:53.329Z,1.00
2019-03-06T13:03:26.704Z,1.30
2019-03-06T13:06:00.204Z,1.30
2019-03-06T13:08:33.613Z,1.20
2019-03-06T13:11:07.042Z,1.10
2019-03-06T13:13:40.443Z,1.30
2019-03-06T13:16:13.802Z,1.20
2019-03-06T13:18:47.218Z,1.10
2019-03-06T13:21:21.065Z,0.97
2019-03-06T13:23:54.587Z,1.10
2019-03-06T13:26:28.083Z,1.30
2019-03-06T13:29:01.497Z,1.13
2019-03-06T13:31:34.971Z,1.10
2019-03-06T13:34:12.504Z,1.00
2019-03-06T13:36:45.832Z,1.10
2019-03-06T13:39:19.261Z,1.20
2019-03-06T13:41:52.600Z,1.10
2019-03-06T13:44:25.961Z,1.17
2019-03-06T13:46:59.369Z,1.63
2019-03-06T13:49:32.809Z,1.20
2019-03-06T13:52:06.206Z,1.50
2019-03-06T13:54:39.611Z,1.00
2019-03-06T13:57:13.188Z,1.17
2019-03-06T13:59:46.615Z,1.03
2019-03-06T14:02:20.211Z,1.00
2019-03-06T14:04:53.645Z,1.23
2019-03-06T14:07:26.970Z,0.80
2019-03-06T14:10:00.371Z,1.30
2019-03-06T14:12:33.776Z,1.00
2019-03-06T14:15:10.032Z,1.10
2019-03-06T14:17:43.417Z,0.93
2019-03-06T14:20:22.411Z,1.40
2019-03-06T14:22:56.333Z,1.10
2019-03-06T14:25:29.804Z,1.20
2019-03-06T14:28:03.278Z,0.90
2019-03-06T14:30:38.367Z,0.90
2019-03-06T14:33:11.697Z,0.80
2019-03-06T14:35:45.116Z,1.20
2019-03-06T14:38:18.619Z,1.07
2019-03-06T14:40:52.805Z,0.90
2019-03-06T14:43:26.221Z,1.00
2019-03-06T14:45:59.571Z,1.00
2019-03-06T14:48:33.053Z,0.80
2019-03-06T14:51:06.478Z,0.97
2019-03-06T14:53:39.950Z,0.93
2019-03-06T14:56:13.386Z,0.90
2019-03-06T14:58:47.244Z,0.90
2019-03-06T15:01:20.792Z,0.90
2019-03-06T15:03:54.123Z,0.90
2019-03-06T15:06:27.463Z,0.90
2019-03-06T15:09:00.818Z,1.20
2019-03-06T15:11:34.156Z,1.20
2019-03-06T15:14:07.471Z,1.00
2019-03-06T15:16:40.951Z,1.50
2019-03-06T15:19:14.355Z,1.03
2019-03-06T15:21:47.778Z,1.07
2019-03-06T15:24:21.102Z,1.27
2019-03-06T15:26:54.620Z,1.10
2019-03-06T15:29:27.998Z,0.90
2019-03-06T15:32:01.646Z,1.20
2019-03-06T15:34:35.025Z,1.10
2019-03-06T15:37:08.434Z,1.30
2019-03-06T15:39:48.252Z,1.57
2019-03-06T15:42:16.900Z,0.90
2019-03-06T15:44:50.323Z,0.90
2019-03-06T15:47:33.267Z,1.17
2019-03-06T15:49:59.796Z,1.17
2019-03-06T15:52:33.415Z,1.30
2019-03-06T15:55:10.090Z,1.00
2019-03-06T15:57:43.546Z,1.17
2019-03-06T16:00:21.441Z,1.47
2019-03-06T16:02:54.794Z,1.10
2019-03-06T16:05:28.212Z,1.50
2019-03-06T16:08:02.007Z,1.40
2019-03-06T16:10:35.421Z,1.40
2019-03-06T16:13:09.045Z,1.00
2019-03-06T16:15:42.474Z,1.10
2019-03-06T16:18:15.934Z,1.53
2019-03-06T16:20:49.300Z,1.30
2019-03-06T16:23:22.751Z,1.87
2019-03-06T16:25:56.080Z,1.97
2019-03-06T16:28:29.439Z,1.70
2019-03-06T16:31:02.815Z,1.10
2019-03-06T16:33:36.260Z,1.70
2019-03-06T16:36:09.701Z,1.47
2019-03-06T16:38:43.014Z,1.60
2019-03-06T16:41:16.433Z,1.90
2019-03-06T16:43:49.898Z,1.80
2019-03-06T16:46:23.354Z,1.60
2019-03-06T16:48:56.795Z,1.50
2019-03-06T16:51:30.221Z,1.50
2019-03-06T16:54:03.711Z,1.40
2019-03-06T16:56:37.120Z,1.40
2019-03-06T16:59:10.523Z,2.03
2019-03-06T17:01:43.881Z,1.43
2019-03-06T17:04:17.352Z,1.70
2019-03-06T17:06:50.979Z,1.80
2019-03-06T17:09:24.390Z,1.73
2019-03-06T17:11:57.900Z,1.70
2019-03-06T17:14:31.308Z,1.60
2019-03-06T17:17:04.717Z,1.77
2019-03-06T17:19:38.083Z,1.93
2019-03-06T17:22:11.520Z,1.80
2019-03-06T17:24:45.058Z,1.93
2019-03-06T17:27:18.478Z,1.40
2019-03-06T17:29:51.883Z,1.60
2019-03-06T17:32:25.310Z,1.63
2019-03-06T17:34:58.803Z,1.70
2019-03-06T17:37:32.259Z,2.27
2019-03-06T17:40:06.392Z,3.80
2019-03-06T17:42:39.769Z,3.83
2019-03-06T17:45:13.219Z,2.53
2019-03-06T17:47:46.734Z,3.37
2019-03-06T17:50:20.511Z,3.10
2019-03-06T17:52:54.209Z,2.73
2019-03-06T17:55:27.872Z,2.13
2019-03-06T17:58:01.308Z,1.87
2019-03-06T18:00:45.850Z,1.60
2019-03-06T18:03:20.835Z,1.67
2019-03-06T18:05:54.271Z,1.80
2019-03-06T18:08:27.917Z,2.07
2019-03-06T18:11:01.622Z,2.40
2019-03-06T18:13:35.118Z,2.50
2019-03-06T18:16:08.540Z,2.50
2019-03-06T18:18:41.971Z,2.57
2019-03-06T18:21:15.682Z,2.40
2019-03-06T18:23:49.147Z,2.27
2019-03-06T18:26:22.483Z,2.50
2019-03-06T18:28:55.930Z,2.30
2019-03-06T18:31:29.685Z,2.33
2019-03-06T18:34:03.124Z,3.43
2019-03-06T18:36:36.552Z,3.70
2019-03-06T18:39:11.663Z,2.90
2019-03-06T18:41:45.128Z,3.27
2019-03-06T18:44:18.725Z,3.90
2019-03-06T18:46:52.148Z,2.80
2019-03-06T18:49:25.685Z,3.13
2019-03-06T18:51:59.080Z,3.20
2019-03-06T18:54:32.446Z,2.87
2019-03-06T18:57:05.865Z,2.60
2019-03-06T18:59:39.263Z,3.17
2019-03-06T19:02:12.877Z,2.63
2019-03-06T19:04:46.295Z,3.10
2019-03-06T19:07:19.683Z,3.57
2019-03-06T19:09:53.068Z,3.80
2019-03-06T19:12:26.472Z,3.03
2019-03-06T19:15:00.370Z,2.60
2019-03-06T19:17:33.994Z,5.13
2019-03-06T19:20:08.801Z,5.00
2019-03-06T19:22:42.146Z,5.07
2019-03-06T19:25:16.189Z,3.70
2019-03-06T19:27:49.689Z,3.50
2019-03-06T19:30:23.877Z,4.20
2019-03-06T19:32:57.474Z,4.10
2019-03-06T19:35:30.905Z,4.27
2019-03-06T19:38:04.313Z,4.00
2019-03-06T19:40:37.734Z,4.93
2019-03-06T19:43:11.173Z,5.83
2019-03-06T19:45:44.537Z,5.07
2019-03-06T19:48:17.973Z,5.60
2019-03-06T19:50:51.723Z,4.90
2019-03-06T19:53:27.354Z,6.40
2019-03-06T19:56:01.342Z,7.47
2019-03-06T19:58:34.711Z,7.93
2019-03-06T20:01:08.136Z,6.97
2019-03-06T20:03:41.522Z,8.93
2019-03-06T20:06:14.949Z,7.93
2019-03-06T20:08:48.609Z,7.33
2019-03-06T20:11:21.995Z,7.50
2019-03-06T20:13:55.366Z,8.37
2019-03-06T20:16:28.765Z,5.77
2019-03-06T20:19:02.400Z,6.13
2019-03-06T20:21:35.735Z,7.80
2019-03-06T20:24:09.405Z,6.47
2019-03-06T20:26:42.741Z,6.93
2019-03-06T20:29:16.122Z,5.77
2019-03-06T20:31:49.618Z,4.43
2019-03-06T20:34:23.031Z,6.50
2019-03-06T20:36:56.652Z,6.23
2019-03-06T20:39:30.088Z,6.17
2019-03-06T20:42:03.769Z,5.53
2019-03-06T20:44:37.202Z,2.20
2019-03-06T20:47:10.589Z,3.10
2019-03-06T20:49:43.939Z,8.90
2019-03-06T20:52:17.281Z,3.93
2019-03-06T20:54:50.759Z,2.77
2019-03-06T20:57:24.138Z,2.50
2019-03-06T20:59:57.832Z,2.27
2019-03-06T21:02:31.239Z,2.30
2019-03-06T21:05:06.044Z,2.30
2019-03-06T21:07:45.094Z,1.80
2019-03-06T21:10:18.829Z,2.20
2019-03-06T21:12:52.416Z,2.03
2019-03-06T21:15:25.876Z,1.83
2019-03-06T21:17:59.290Z,2.00
2019-03-06T21:20:32.753Z,1.53
2019-03-06T21:23:06.079Z,2.10
2019-03-06T21:25:39.862Z,2.07
2019-03-06T21:28:13.264Z,2.30
2019-03-06T21:30:47.494Z,2.00
2019-03-06T21:33:21.951Z,3.20
2019-03-06T21:35:55.659Z,2.30
2019-03-06T21:38:28.957Z,2.17
2019-03-06T21:41:02.474Z,2.60
2019-03-06T21:43:35.908Z,2.37
2019-03-06T21:46:09.309Z,2.33
2019-03-06T21:48:42.733Z,2.10
2019-03-06T21:51:16.195Z,1.70
2019-03-06T21:53:49.580Z,1.83
2019-03-06T21:56:23.033Z,1.60
2019-03-06T21:58:56.393Z,1.60
2019-03-06T22:01:29.820Z,1.70
2019-03-06T22:04:03.173Z,2.10
2019-03-06T22:06:36.543Z,2.00
2019-03-06T22:09:12.063Z,1.90
2019-03-06T22:11:45.498Z,1.93
2019-03-06T22:14:21.031Z,1.80
2019-03-06T22:16:53.942Z,1.60
2019-03-06T22:19:27.254Z,2.07
2019-03-06T22:22:00.586Z,1.93
2019-03-06T22:24:33.935Z,1.67
2019-03-06T22:27:07.353Z,1.60
2019-03-06T22:29:40.693Z,1.83
2019-03-06T22:32:14.211Z,1.97
2019-03-06T22:34:47.547Z,1.90
2019-03-06T22:37:20.894Z,2.50
2019-03-06T22:39:55.469Z,2.03
2019-03-06T22:42:29.136Z,2.00
2019-03-06T22:45:02.548Z,1.80
2019-03-06T22:47:35.946Z,1.83
2019-03-06T22:50:12.488Z,1.70
2019-03-06T22:52:45.877Z,1.97
2019-03-06T22:55:20.260Z,1.60
2019-03-06T22:57:53.606Z,2.10
2019-03-06T23:00:52.673Z,1.30
2019-03-06T23:03:26.522Z,1.67
2019-03-06T23:05:59.845Z,1.67
2019-03-06T23:08:33.201Z,1.73
2019-03-06T23:11:06.677Z,1.60
2019-03-06T23:13:40.021Z,1.60
2019-03-06T23:16:13.432Z,1.90
2019-03-06T23:18:46.775Z,1.40
2019-03-06T23:21:20.189Z,1.50
2019-03-06T23:23:53.556Z,1.50
2019-03-06T23:26:26.873Z,1.70
2019-03-06T23:29:00.327Z,1.53
2019-03-06T23:31:33.639Z,1.47
2019-03-06T23:34:07.056Z,1.50
2019-03-06T23:36:40.587Z,1.50
2019-03-06T23:39:14.125Z,1.80
2019-03-06T23:41:47.538Z,1.40
2019-03-06T23:44:21.331Z,1.53
2019-03-06T23:46:54.778Z,1.50
2019-03-06T23:49:28.187Z,1.50
2019-03-06T23:52:03.158Z,1.87
2019-03-06T23:54:36.863Z,1.43
2019-03-06T23:57:10.257Z,1.33
2019-03-06T23:59:43.673Z,1.50
